sensor_id;sensor_type;location;lat;lon;timestamp;pressure;altitude;pressure_sealevel;temperature;humidity
64343;BME280;50675;53.530;-6.312;2023-11-19T00:58:40;99254.03;;;12.71;72.96
64343;BME280;50675;53.530;-6.312;2023-11-19T01:13:16;99267.44;;;12.95;73.12
64343;BME280;50675;53.530;-6.312;2023-11-19T01:24:17;99238.72;;;12.94;72.92
64343;BME280;50675;53.530;-6.312;2023-11-19T01:31:00;99218.16;;;12.61;72.94
64343;BME280;50675;53.530;-6.312;2023-11-19T01:37:44;99202.94;;;12.79;73.12
64343;BME280;50675;53.530;-6.312;2023-11-19T01:40:28;99197.41;;;12.70;73.11
64343;BME280;50675;53.530;-6.312;2023-11-19T02:18:41;99197.66;;;12.87;73.38
64343;BME280;50675;53.530;-6.312;2023-11-19T02:21:41;99186.22;;;12.90;73.22
64343;BME280;50675;53.530;-6.312;2023-11-19T02:25:22;99196.28;;;13.03;73.25
64343;BME280;50675;53.530;-6.312;2023-11-19T02:34:54;99185.22;;;12.86;73.28
64343;BME280;50675;53.530;-6.312;2023-11-19T02:46:09;99161.53;;;12.92;73.38
64343;BME280;50675;53.530;-6.312;2023-11-19T02:53:14;99143.84;;;12.81;73.41
64343;BME280;50675;53.530;-6.312;2023-11-19T02:56:38;99175.00;;;13.10;73.50
64343;BME280;50675;53.530;-6.312;2023-11-19T03:04:25;99148.66;;;12.97;73.25
64343;BME280;50675;53.530;-6.312;2023-11-19T03:07:30;99159.31;;;12.94;73.40
64343;BME280;50675;53.530;-6.312;2023-11-19T03:17:20;99134.22;;;12.88;73.45
64343;BME280;50675;53.530;-6.312;2023-11-19T03:31:17;99134.22;;;12.88;73.45
64343;BME280;50675;53.530;-6.312;2023-11-19T03:44:16;99130.13;;;13.04;73.65
64343;BME280;50675;53.530;-6.312;2023-11-19T03:47:24;99134.94;;;12.94;73.56
64343;BME280;50675;53.530;-6.312;2023-11-19T04:53:05;99100.41;;;13.27;74.01
64343;BME280;50675;53.530;-6.312;2023-11-19T05:02:32;99076.91;;;12.95;73.73
64343;BME280;50675;53.530;-6.312;2023-11-19T05:06:06;99082.03;;;12.96;73.76
64343;BME280;50675;53.530;-6.312;2023-11-19T05:09:45;99088.84;;;13.07;73.77
64343;BME280;50675;53.530;-6.312;2023-11-19T05:16:05;99087.13;;;12.98;73.67
64343;BME280;50675;53.530;-6.312;2023-11-19T05:22:58;99069.97;;;13.02;73.97
64343;BME280;50675;53.530;-6.312;2023-11-19T05:26:04;99080.63;;;12.99;73.84
64343;BME280;50675;53.530;-6.312;2023-11-19T05:29:04;99061.56;;;12.90;73.78
64343;BME280;50675;53.530;-6.312;2023-11-19T05:32:53;99077.31;;;13.02;73.79
64343;BME280;50675;53.530;-6.312;2023-11-19T05:39:10;99061.25;;;13.05;73.98
64343;BME280;50675;53.530;-6.312;2023-11-19T05:45:55;99044.31;;;12.86;73.94
64343;BME280;50675;53.530;-6.312;2023-11-19T05:48:41;99049.09;;;12.89;73.89
64343;BME280;50675;53.530;-6.312;2023-11-19T05:51:47;99059.25;;;12.84;73.75
64343;BME280;50675;53.530;-6.312;2023-11-19T05:54:55;99069.06;;;13.07;73.75
64343;BME280;50675;53.530;-6.312;2023-11-19T05:58:24;99061.53;;;13.04;73.79
64343;BME280;50675;53.530;-6.312;2023-11-19T06:02:03;99063.38;;;12.81;73.97
64343;BME280;50675;53.530;-6.312;2023-11-19T06:05:31;99073.50;;;12.89;73.56
64343;BME280;50675;53.530;-6.312;2023-11-19T06:08:25;99059.34;;;12.79;73.90
64343;BME280;50675;53.530;-6.312;2023-11-19T06:11:09;99073.13;;;12.82;73.76
64343;BME280;50675;53.530;-6.312;2023-11-19T06:17:54;99076.72;;;12.91;73.86
64343;BME280;50675;53.530;-6.312;2023-11-19T06:20:49;99042.41;;;12.87;73.77
64343;BME280;50675;53.530;-6.312;2023-11-19T06:23:45;99051.22;;;12.92;73.73
64343;BME280;50675;53.530;-6.312;2023-11-19T06:30:58;99042.06;;;12.88;73.88
64343;BME280;50675;53.530;-6.312;2023-11-19T06:34:42;99057.75;;;13.05;73.73
64343;BME280;50675;53.530;-6.312;2023-11-19T06:37:28;99055.31;;;13.03;73.94
64343;BME280;50675;53.530;-6.312;2023-11-19T06:43:20;99033.56;;;12.81;73.88
64343;BME280;50675;53.530;-6.312;2023-11-19T06:46:58;99043.28;;;12.96;73.93
64343;BME280;50675;53.530;-6.312;2023-11-19T06:56:30;99034.84;;;12.97;73.95
64343;BME280;50675;53.530;-6.312;2023-11-19T07:00:03;99053.34;;;12.95;73.74
64343;BME280;50675;53.530;-6.312;2023-11-19T07:02:49;99029.03;;;12.90;73.92
64343;BME280;50675;53.530;-6.312;2023-11-19T07:05:47;99032.25;;;12.92;73.85
64343;BME280;50675;53.530;-6.312;2023-11-19T07:08:55;99044.09;;;12.96;73.86
64343;BME280;50675;53.530;-6.312;2023-11-19T07:11:56;99035.25;;;12.91;73.73
64343;BME280;50675;53.530;-6.312;2023-11-19T07:18:15;99048.31;;;12.89;73.80
64343;BME280;50675;53.530;-6.312;2023-11-19T07:25:41;99027.44;;;12.89;73.73
64343;BME280;50675;53.530;-6.312;2023-11-19T07:32:45;99037.84;;;13.09;73.93
64343;BME280;50675;53.530;-6.312;2023-11-19T07:35:53;99024.50;;;12.99;73.92
64343;BME280;50675;53.530;-6.312;2023-11-19T07:39:13;99020.03;;;12.81;73.85
64343;BME280;50675;53.530;-6.312;2023-11-19T07:42:45;99025.31;;;13.00;73.89
64343;BME280;50675;53.530;-6.312;2023-11-19T07:46:04;99012.34;;;13.10;74.06
64343;BME280;50675;53.530;-6.312;2023-11-19T07:49:25;99035.88;;;13.15;73.88
64343;BME280;50675;53.530;-6.312;2023-11-19T07:52:30;99014.47;;;13.00;73.85
64343;BME280;50675;53.530;-6.312;2023-11-19T07:55:38;99015.38;;;12.95;74.05
64343;BME280;50675;53.530;-6.312;2023-11-19T08:05:32;99029.72;;;13.23;73.52
64343;BME280;50675;53.530;-6.312;2023-11-19T08:11:47;99034.56;;;13.12;73.65
64343;BME280;50675;53.530;-6.312;2023-11-19T08:15:10;99015.28;;;13.14;73.74
64343;BME280;50675;53.530;-6.312;2023-11-19T08:18:40;99046.28;;;13.22;74.02
64343;BME280;50675;53.530;-6.312;2023-11-19T08:21:39;99046.13;;;13.40;73.94
64343;BME280;50675;53.530;-6.312;2023-11-19T08:24:51;99032.50;;;13.32;74.29
64343;BME280;50675;53.530;-6.312;2023-11-19T08:28:36;99038.72;;;13.32;74.00
64343;BME280;50675;53.530;-6.312;2023-11-19T08:31:44;99041.66;;;13.22;73.84
64343;BME280;50675;53.530;-6.312;2023-11-19T08:35:37;99048.69;;;13.23;73.77
64343;BME280;50675;53.530;-6.312;2023-11-19T08:38:17;99044.03;;;13.37;73.96
64343;BME280;50675;53.530;-6.312;2023-11-19T08:48:39;99051.56;;;13.40;73.87
64343;BME280;50675;53.530;-6.312;2023-11-19T08:55:32;99059.47;;;13.50;73.87
64343;BME280;50675;53.530;-6.312;2023-11-19T09:02:28;99053.13;;;13.55;74.07
64343;BME280;50675;53.530;-6.312;2023-11-19T09:05:22;99051.03;;;13.52;73.82
64343;BME280;50675;53.530;-6.312;2023-11-19T09:08:20;99072.63;;;13.57;73.82
64343;BME280;50675;53.530;-6.312;2023-11-19T09:11:47;99059.34;;;13.55;73.85
64343;BME280;50675;53.530;-6.312;2023-11-19T09:23:54;99066.56;;;13.60;74.08
64343;BME280;50675;53.530;-6.312;2023-11-19T09:44:04;99094.38;;;14.01;73.83
64343;BME280;50675;53.530;-6.312;2023-11-19T09:47:11;99089.94;;;14.06;74.01
64343;BME280;50675;53.530;-6.312;2023-11-19T09:50:23;99094.50;;;13.96;73.92
64343;BME280;50675;53.530;-6.312;2023-11-19T09:57:35;99121.81;;;14.22;73.86
64343;BME280;50675;53.530;-6.312;2023-11-19T10:03:59;99111.03;;;14.09;73.99
64343;BME280;50675;53.530;-6.312;2023-11-19T10:10:41;99139.84;;;14.18;74.04
64343;BME280;50675;53.530;-6.312;2023-11-19T10:13:37;99127.13;;;14.05;74.24
64343;BME280;50675;53.530;-6.312;2023-11-19T10:17:14;99137.31;;;14.22;74.06
64343;BME280;50675;53.530;-6.312;2023-11-19T10:20:41;99139.56;;;14.20;73.93
64343;BME280;50675;53.530;-6.312;2023-11-19T10:24:02;99140.47;;;14.15;74.08
64343;BME280;50675;53.530;-6.312;2023-11-19T10:30:55;99167.25;;;14.44;73.88
64343;BME280;50675;53.530;-6.312;2023-11-19T10:33:57;99168.91;;;14.54;73.99
64343;BME280;50675;53.530;-6.312;2023-11-19T10:36:38;99164.94;;;14.37;73.93
64343;BME280;50675;53.530;-6.312;2023-11-19T10:39:32;99172.53;;;14.49;74.06
64343;BME280;50675;53.530;-6.312;2023-11-19T10:42:36;99161.69;;;14.35;74.02
64343;BME280;50675;53.530;-6.312;2023-11-19T10:49:01;99188.53;;;14.51;73.87
64343;BME280;50675;53.530;-6.312;2023-11-19T10:52:03;99199.66;;;14.63;73.99
64343;BME280;50675;53.530;-6.312;2023-11-19T10:58:39;99223.97;;;14.68;73.97
64343;BME280;50675;53.530;-6.312;2023-11-19T11:02:04;99197.22;;;14.61;73.79
64343;BME280;50675;53.530;-6.312;2023-11-19T11:08:16;99224.03;;;14.54;73.97
64343;BME280;50675;53.530;-6.312;2023-11-19T11:11:33;99223.34;;;14.71;74.03
64343;BME280;50675;53.530;-6.312;2023-11-19T11:14:28;99233.97;;;14.81;73.87
64343;BME280;50675;53.530;-6.312;2023-11-19T11:17:32;99207.34;;;14.69;73.92
64343;BME280;50675;53.530;-6.312;2023-11-19T11:20:48;99244.38;;;14.87;74.00
64343;BME280;50675;53.530;-6.312;2023-11-19T11:36:27;99264.81;;;15.07;74.03
64343;BME280;50675;53.530;-6.312;2023-11-19T11:39:11;99278.63;;;15.11;74.04
64343;BME280;50675;53.530;-6.312;2023-11-19T11:45:12;99268.34;;;15.08;74.08
64343;BME280;50675;53.530;-6.312;2023-11-19T11:48:46;99271.25;;;15.11;73.86
64343;BME280;50675;53.530;-6.312;2023-11-19T11:52:09;99268.09;;;15.18;73.92
64343;BME280;50675;53.530;-6.312;2023-11-19T11:58:42;99281.06;;;15.21;73.83
64343;BME280;50675;53.530;-6.312;2023-11-19T12:02:22;99270.78;;;15.09;73.89
64343;BME280;50675;53.530;-6.312;2023-11-19T12:05:19;99267.28;;;15.17;73.76
64343;BME280;50675;53.530;-6.312;2023-11-19T12:14:16;99289.06;;;15.17;74.02
64343;BME280;50675;53.530;-6.312;2023-11-19T12:24:00;99307.41;;;15.34;73.45
64343;BME280;50675;53.530;-6.312;2023-11-19T13:04:21;99381.72;;;15.21;73.80
64343;BME280;50675;53.530;-6.312;2023-11-19T13:07:20;99402.00;;;15.15;73.78
64343;BME280;50675;53.530;-6.312;2023-11-19T13:10:02;99381.97;;;15.11;73.76
64343;BME280;50675;53.530;-6.312;2023-11-19T13:12:42;99397.41;;;15.02;73.77
64343;BME280;50675;53.530;-6.312;2023-11-19T13:15:45;99406.28;;;14.94;73.65
64343;BME280;50675;53.530;-6.312;2023-11-19T13:18:24;99414.91;;;15.09;73.87
64343;BME280;50675;53.530;-6.312;2023-11-19T13:21:04;99419.91;;;15.16;73.63
64343;BME280;50675;53.530;-6.312;2023-11-19T13:23:38;99418.38;;;15.01;73.75
64343;BME280;50675;53.530;-6.312;2023-11-19T13:26:04;99425.72;;;15.01;73.89
64343;BME280;50675;53.530;-6.312;2023-11-19T13:28:43;99429.47;;;14.91;73.80
64343;BME280;50675;53.530;-6.312;2023-11-19T13:31:12;99435.41;;;14.93;73.68
64343;BME280;50675;53.530;-6.312;2023-11-19T13:33:53;99432.31;;;14.86;73.84
64343;BME280;50675;53.530;-6.312;2023-11-19T13:36:31;99453.88;;;14.82;73.63
64343;BME280;50675;53.530;-6.312;2023-11-19T13:39:09;99448.06;;;14.98;73.65
64343;BME280;50675;53.530;-6.312;2023-11-19T13:41:48;99459.75;;;14.98;73.86
64343;BME280;50675;53.530;-6.312;2023-11-19T13:44:26;99454.06;;;14.86;73.74
64343;BME280;50675;53.530;-6.312;2023-11-19T13:47:11;99464.25;;;14.80;73.74
64343;BME280;50675;53.530;-6.312;2023-11-19T13:49:57;99476.88;;;14.99;73.79
64343;BME280;50675;53.530;-6.312;2023-11-19T13:52:26;99459.81;;;14.71;73.89
64343;BME280;50675;53.530;-6.312;2023-11-19T13:54:57;99467.97;;;14.71;73.85
64343;BME280;50675;53.530;-6.312;2023-11-19T13:57:31;99475.31;;;14.70;73.80
64343;BME280;50675;53.530;-6.312;2023-11-19T14:00:41;99495.44;;;14.69;73.74
64343;BME280;50675;53.530;-6.312;2023-11-19T14:03:44;99485.69;;;14.55;73.81
64343;BME280;50675;53.530;-6.312;2023-11-19T14:06:20;99488.22;;;14.37;73.99
64343;BME280;50675;53.530;-6.312;2023-11-19T14:08:51;99487.91;;;14.53;73.95
64343;BME280;50675;53.530;-6.312;2023-11-19T14:11:21;99493.75;;;14.46;73.83
64343;BME280;50675;53.530;-6.312;2023-11-19T14:14:04;99498.97;;;14.56;73.84
64343;BME280;50675;53.530;-6.312;2023-11-19T14:16:42;99509.56;;;14.58;73.91
64343;BME280;50675;53.530;-6.312;2023-11-19T14:19:25;99527.34;;;14.50;73.71
64343;BME280;50675;53.530;-6.312;2023-11-19T14:21:58;99513.56;;;14.47;73.91
64343;BME280;50675;53.530;-6.312;2023-11-19T14:24:37;99512.19;;;14.49;73.87
64343;BME280;50675;53.530;-6.312;2023-11-19T14:27:21;99531.78;;;14.60;73.89
64343;BME280;50675;53.530;-6.312;2023-11-19T14:29:56;99503.09;;;14.40;73.95
64343;BME280;50675;53.530;-6.312;2023-11-19T14:32:25;99528.97;;;14.65;73.83
64343;BME280;50675;53.530;-6.312;2023-11-19T14:34:51;99522.16;;;14.54;73.74
64343;BME280;50675;53.530;-6.312;2023-11-19T14:37:17;99529.38;;;14.44;73.73
64343;BME280;50675;53.530;-6.312;2023-11-19T14:39:43;99524.25;;;14.43;73.74
64343;BME280;50675;53.530;-6.312;2023-11-19T14:42:09;99539.44;;;14.44;73.77
64343;BME280;50675;53.530;-6.312;2023-11-19T14:44:35;99527.16;;;14.47;73.64
64343;BME280;50675;53.530;-6.312;2023-11-19T14:47:21;99533.16;;;14.30;73.66
64343;BME280;50675;53.530;-6.312;2023-11-19T14:49:57;99542.69;;;14.14;73.74
64343;BME280;50675;53.530;-6.312;2023-11-19T14:52:23;99548.03;;;14.19;73.87
64343;BME280;50675;53.530;-6.312;2023-11-19T14:55:05;99557.25;;;14.04;73.68
64343;BME280;50675;53.530;-6.312;2023-11-19T14:57:34;99567.66;;;14.29;73.74
64343;BME280;50675;53.530;-6.312;2023-11-19T15:00:23;99568.41;;;14.16;73.86
64343;BME280;50675;53.530;-6.312;2023-11-19T15:02:59;99575.25;;;14.14;73.76
64343;BME280;50675;53.530;-6.312;2023-11-19T15:05:33;99554.88;;;13.97;73.92
64343;BME280;50675;53.530;-6.312;2023-11-19T15:08:09;99573.72;;;14.08;73.74
64343;BME280;50675;53.530;-6.312;2023-11-19T15:10:35;99571.91;;;14.03;73.96
64343;BME280;50675;53.530;-6.312;2023-11-19T15:13:07;99585.13;;;14.10;73.80
64343;BME280;50675;53.530;-6.312;2023-11-19T15:15:36;99578.19;;;14.17;73.82
64343;BME280;50675;53.530;-6.312;2023-11-19T15:18:02;99583.25;;;14.24;73.93
64343;BME280;50675;53.530;-6.312;2023-11-19T15:20:36;99600.00;;;14.12;73.76
64343;BME280;50675;53.530;-6.312;2023-11-19T15:23:13;99603.31;;;14.09;73.75
64343;BME280;50675;53.530;-6.312;2023-11-19T15:25:42;99614.25;;;14.04;73.66
64343;BME280;50675;53.530;-6.312;2023-11-19T15:28:24;99605.47;;;14.26;73.71
64343;BME280;50675;53.530;-6.312;2023-11-19T15:31:13;99592.50;;;13.90;73.69
64343;BME280;50675;53.530;-6.312;2023-11-19T15:33:50;99625.00;;;13.95;73.71
64343;BME280;50675;53.530;-6.312;2023-11-19T15:36:26;99597.31;;;13.93;73.61
64343;BME280;50675;53.530;-6.312;2023-11-19T15:38:52;99619.97;;;14.02;73.80
64343;BME280;50675;53.530;-6.312;2023-11-19T15:41:28;99623.00;;;14.01;73.69
64343;BME280;50675;53.530;-6.312;2023-11-19T15:43:58;99626.38;;;13.93;73.83
64343;BME280;50675;53.530;-6.312;2023-11-19T15:46:27;99637.81;;;13.90;73.82
64343;BME280;50675;53.530;-6.312;2023-11-19T15:48:57;99638.13;;;13.88;73.50
64343;BME280;50675;53.530;-6.312;2023-11-19T15:51:32;99612.66;;;13.84;73.93
64343;BME280;50675;53.530;-6.312;2023-11-19T15:54:01;99640.81;;;13.88;73.61
64343;BME280;50675;53.530;-6.312;2023-11-19T15:56:32;99632.69;;;13.88;73.57
64343;BME280;50675;53.530;-6.312;2023-11-19T15:59:03;99651.69;;;13.88;73.83
64343;BME280;50675;53.530;-6.312;2023-11-19T16:01:53;99633.88;;;13.64;73.67
64343;BME280;50675;53.530;-6.312;2023-11-19T16:04:25;99655.28;;;13.84;73.50
64343;BME280;50675;53.530;-6.312;2023-11-19T16:06:55;99650.81;;;13.74;73.63
64343;BME280;50675;53.530;-6.312;2023-11-19T16:09:21;99660.34;;;13.72;73.78
64343;BME280;50675;53.530;-6.312;2023-11-19T16:11:48;99666.66;;;13.86;73.44
64343;BME280;50675;53.530;-6.312;2023-11-19T16:14:20;99665.13;;;13.80;73.46
64343;BME280;50675;53.530;-6.312;2023-11-19T16:16:49;99680.03;;;13.82;73.56
64343;BME280;50675;53.530;-6.312;2023-11-19T16:19:36;99663.34;;;13.70;73.69
64343;BME280;50675;53.530;-6.312;2023-11-19T16:22:25;99680.16;;;13.72;73.52
64343;BME280;50675;53.530;-6.312;2023-11-19T16:31:56;99675.28;;;13.50;73.74
64343;BME280;50675;53.530;-6.312;2023-11-19T16:38:06;99678.44;;;13.39;73.57
64343;BME280;50675;53.530;-6.312;2023-11-19T16:54:49;99699.81;;;13.17;73.51
64343;BME280;50675;53.530;-6.312;2023-11-19T16:57:46;99698.97;;;13.21;73.45
64343;BME280;50675;53.530;-6.312;2023-11-19T17:04:13;99714.91;;;13.28;73.32
64343;BME280;50675;53.530;-6.312;2023-11-19T17:10:45;99709.53;;;13.23;73.44
64343;BME280;50675;53.530;-6.312;2023-11-19T17:14:06;99723.56;;;13.01;73.34
64343;BME280;50675;53.530;-6.312;2023-11-19T17:17:22;99733.94;;;12.94;73.49
64343;BME280;50675;53.530;-6.312;2023-11-19T17:20:33;99730.41;;;12.93;73.45
64343;BME280;50675;53.530;-6.312;2023-11-19T17:23:26;99748.56;;;12.93;73.19
64343;BME280;50675;53.530;-6.312;2023-11-19T17:26:37;99752.00;;;12.75;73.33
64343;BME280;50675;53.530;-6.312;2023-11-19T17:33:27;99756.69;;;12.64;72.99
64343;BME280;50675;53.530;-6.312;2023-11-19T17:36:28;99762.94;;;12.59;73.14
64343;BME280;50675;53.530;-6.312;2023-11-19T17:39:36;99765.41;;;12.56;73.12
64343;BME280;50675;53.530;-6.312;2023-11-19T17:43:01;99780.78;;;12.65;73.04
64343;BME280;50675;53.530;-6.312;2023-11-19T17:49:45;99778.06;;;12.65;73.03
64343;BME280;50675;53.530;-6.312;2023-11-19T17:52:51;99778.84;;;12.71;73.22
64343;BME280;50675;53.530;-6.312;2023-11-19T18:03:21;99781.72;;;12.85;73.25
64343;BME280;50675;53.530;-6.312;2023-11-19T18:06:54;99790.75;;;12.75;73.08
64343;BME280;50675;53.530;-6.312;2023-11-19T18:13:50;99810.38;;;12.57;73.14
64343;BME280;50675;53.530;-6.312;2023-11-19T18:17:24;99799.84;;;12.50;72.84
64343;BME280;50675;53.530;-6.312;2023-11-19T18:24:42;99822.25;;;12.17;73.03
64343;BME280;50675;53.530;-6.312;2023-11-19T18:31:25;99817.28;;;12.39;72.80
64343;BME280;50675;53.530;-6.312;2023-11-19T18:38:29;99841.31;;;12.46;73.03
64343;BME280;50675;53.530;-6.312;2023-11-19T18:45:06;99829.03;;;12.19;72.79
64343;BME280;50675;53.530;-6.312;2023-11-19T18:48:41;99842.19;;;12.36;73.06
64343;BME280;50675;53.530;-6.312;2023-11-19T19:13:39;99845.69;;;11.88;72.76
64343;BME280;50675;53.530;-6.312;2023-11-19T19:20:22;99835.72;;;11.78;72.61
64343;BME280;50675;53.530;-6.312;2023-11-19T19:23:50;99838.41;;;11.83;72.60
64343;BME280;50675;53.530;-6.312;2023-11-19T19:30:10;99838.06;;;11.95;72.53
64343;BME280;50675;53.530;-6.312;2023-11-19T19:33:00;99842.88;;;12.13;72.75
64343;BME280;50675;53.530;-6.312;2023-11-19T19:36:47;99835.56;;;12.08;72.71
64343;BME280;50675;53.530;-6.312;2023-11-19T19:40:17;99823.69;;;12.04;72.69
64343;BME280;50675;53.530;-6.312;2023-11-19T19:47:01;99832.88;;;12.03;72.64
64343;BME280;50675;53.530;-6.312;2023-11-19T19:53:48;99846.47;;;11.93;72.63
64343;BME280;50675;53.530;-6.312;2023-11-19T19:57:05;99845.72;;;11.77;72.71
64343;BME280;50675;53.530;-6.312;2023-11-19T20:00:03;99856.53;;;11.88;72.80
64343;BME280;50675;53.530;-6.312;2023-11-19T23:07:02;99820.41;;;12.07;72.47
64343;BME280;50675;53.530;-6.312;2023-11-19T23:45:58;99803.22;;;11.83;72.39
